createdAt,value
2019-06-07T00:01:52.389Z,16.37
2019-06-07T00:04:21.366Z,21.00
2019-06-07T00:06:47.817Z,20.25
2019-06-07T00:09:17.148Z,16.02
2019-06-07T00:11:43.161Z,15.85
2019-06-07T00:14:13.022Z,13.50
2019-06-07T00:16:38.764Z,14.10
2019-06-07T00:19:05.530Z,12.75
2019-06-07T00:22:12.999Z,12.95
2019-06-07T00:24:01.031Z,15.98
2019-06-07T00:26:28.067Z,17.05
2019-06-07T00:28:54.924Z,13.88
2019-06-07T00:31:24.670Z,12.98
2019-06-07T00:33:51.356Z,19.07
2019-06-07T00:36:20.065Z,14.03
2019-06-07T00:38:46.717Z,14.43
2019-06-07T00:41:15.005Z,11.28
2019-06-07T00:43:41.952Z,10.38
2019-06-07T00:46:08.629Z,10.88
2019-06-07T00:48:35.392Z,11.12
2019-06-07T00:51:02.157Z,10.60
2019-06-07T00:53:32.306Z,11.45
2019-06-07T00:55:57.827Z,14.85
2019-06-07T00:58:27.879Z,13.58
2019-06-07T01:00:53.140Z,13.45
2019-06-07T01:03:22.513Z,12.25
2019-06-07T01:05:48.485Z,12.40
2019-06-07T01:08:16.668Z,16.55
2019-06-07T01:10:59.081Z,15.08
2019-06-07T01:13:14.961Z,15.30
2019-06-07T01:15:41.064Z,19.32
2019-06-07T01:20:36.412Z,17.73
2019-06-07T01:23:03.167Z,16.70
2019-06-07T01:25:30.062Z,14.93
2019-06-07T01:27:56.909Z,16.07
2019-06-07T01:30:26.541Z,16.23
2019-06-07T01:32:53.143Z,15.23
2019-06-07T01:35:21.420Z,12.90
2019-06-07T01:37:48.513Z,15.72
2019-06-07T01:40:16.983Z,13.40
2019-06-07T01:42:43.907Z,13.72
2019-06-07T01:45:11.283Z,15.25
2019-06-07T01:47:38.048Z,14.53
2019-06-07T01:50:06.107Z,12.35
2019-06-07T01:52:32.888Z,14.85
2019-06-07T01:54:59.574Z,14.65
2019-06-07T01:57:38.350Z,14.13
2019-06-07T01:59:54.985Z,12.13
2019-06-07T02:02:22.731Z,12.35
2019-06-07T02:04:50.328Z,12.25
2019-06-07T02:07:19.423Z,14.05
2019-06-07T02:09:45.676Z,15.13
2019-06-07T02:12:25.719Z,13.15
2019-06-07T02:14:41.094Z,14.13
2019-06-07T02:17:07.882Z,13.55
2019-06-07T02:19:34.808Z,17.87
2019-06-07T02:22:01.653Z,13.20
2019-06-07T02:24:29.584Z,13.30
2019-06-07T02:26:56.844Z,11.05
2019-06-07T02:29:25.284Z,13.05
2019-06-07T02:31:52.333Z,12.47
2019-06-07T02:34:19.111Z,11.97
2019-06-07T02:36:45.881Z,11.80
2019-06-07T02:39:12.587Z,14.47
2019-06-07T02:41:40.552Z,10.68
2019-06-07T02:44:07.458Z,15.48
2019-06-07T02:46:44.722Z,13.45
2019-06-07T02:49:02.994Z,14.93
2019-06-07T02:51:35.816Z,11.95
2019-06-07T02:53:58.296Z,12.30
2019-06-07T02:56:42.068Z,11.83
2019-06-07T02:58:54.657Z,11.55
2019-06-07T03:01:21.878Z,11.18
2019-06-07T03:03:49.128Z,11.28
2019-06-07T03:06:15.881Z,12.13
2019-06-07T03:08:44.157Z,13.05
2019-06-07T03:11:13.732Z,14.60
2019-06-07T03:13:42.303Z,19.37
2019-06-07T03:16:10.966Z,13.28
2019-06-07T03:18:56.342Z,13.98
2019-06-07T03:21:31.492Z,13.32
2019-06-07T03:23:58.707Z,12.68
2019-06-07T03:26:27.688Z,14.03
2019-06-07T03:28:54.792Z,11.28
2019-06-07T03:31:27.507Z,11.48
2019-06-07T03:33:53.586Z,13.55
2019-06-07T03:36:25.532Z,12.95
2019-06-07T03:38:48.846Z,13.50
2019-06-07T03:41:15.762Z,14.20
2019-06-07T03:43:42.645Z,13.88
2019-06-07T03:46:09.330Z,12.78
2019-06-07T03:48:39.582Z,12.90
2019-06-07T03:51:20.284Z,12.63
2019-06-07T03:53:34.746Z,13.10
2019-06-07T03:56:03.385Z,13.43
2019-06-07T03:58:33.999Z,13.90
2019-06-07T04:01:01.915Z,11.20
2019-06-07T04:03:39.524Z,11.08
2019-06-07T04:05:55.919Z,11.22
2019-06-07T04:08:22.706Z,11.03
2019-06-07T04:10:59.613Z,11.90
2019-06-07T04:13:17.993Z,10.63
2019-06-07T04:15:44.706Z,12.05
2019-06-07T04:18:11.528Z,12.00
2019-06-07T04:20:41.145Z,12.00
2019-06-07T04:23:27.184Z,12.18
2019-06-07T04:25:39.338Z,12.78
2019-06-07T04:28:03.925Z,11.73
2019-06-07T04:30:37.305Z,11.25
2019-06-07T04:33:05.176Z,16.07
2019-06-07T04:35:32.937Z,14.90
2019-06-07T04:38:01.181Z,13.98
2019-06-07T04:40:30.670Z,78.30
2019-06-07T04:42:58.957Z,20.17
2019-06-07T04:45:39.479Z,17.00
2019-06-07T04:47:55.945Z,13.70
2019-06-07T04:50:23.029Z,11.95
2019-06-07T04:52:49.794Z,10.80
2019-06-07T04:55:16.565Z,12.18
2019-06-07T04:57:43.497Z,10.75
2019-06-07T05:00:34.262Z,9.90
2019-06-07T05:02:40.872Z,12.00
2019-06-07T05:05:07.948Z,9.05
2019-06-07T05:07:37.013Z,9.28
2019-06-07T05:10:04.588Z,9.08
2019-06-07T05:12:32.701Z,9.83
2019-06-07T05:14:59.931Z,10.00
2019-06-07T05:17:26.717Z,10.45
2019-06-07T05:19:53.512Z,12.03
2019-06-07T05:22:20.271Z,11.33
2019-06-07T05:24:47.101Z,11.80
2019-06-07T05:27:13.860Z,11.83
2019-06-07T05:29:41.628Z,11.73
2019-06-07T05:32:09.029Z,10.78
2019-06-07T05:34:36.914Z,10.53
2019-06-07T05:37:11.766Z,10.38
2019-06-07T05:39:36.852Z,10.25
2019-06-07T05:42:01.595Z,10.10
2019-06-07T05:44:28.395Z,10.68
2019-06-07T05:46:55.213Z,12.85
2019-06-07T05:49:22.179Z,13.98
2019-06-07T05:51:48.950Z,12.58
2019-06-07T05:54:15.739Z,11.30
2019-06-07T05:56:45.048Z,12.15
2019-06-07T05:59:11.452Z,12.50
2019-06-07T06:01:45.010Z,11.57
2019-06-07T06:04:06.786Z,10.68
2019-06-07T06:06:33.899Z,10.58
2019-06-07T06:09:13.266Z,10.53
2019-06-07T06:11:43.130Z,12.03
2019-06-07T06:14:07.638Z,10.40
2019-06-07T06:16:26.711Z,10.05
2019-06-07T06:18:53.491Z,10.18
2019-06-07T06:21:20.642Z,8.90
2019-06-07T06:23:48.824Z,8.35
2019-06-07T06:26:16.333Z,8.63
2019-06-07T06:28:45.261Z,7.42
2019-06-07T06:31:11.784Z,6.65
2019-06-07T06:33:39.667Z,6.08
2019-06-07T06:36:06.545Z,6.00
2019-06-07T06:38:33.480Z,5.85
2019-06-07T06:41:15.137Z,4.58
2019-06-07T06:43:28.963Z,4.45
2019-06-07T06:45:55.848Z,4.33
2019-06-07T06:48:22.705Z,4.58
2019-06-07T06:50:52.529Z,3.90
2019-06-07T06:53:19.103Z,3.77
2019-06-07T06:55:48.431Z,4.33
2019-06-07T06:58:14.641Z,4.10
2019-06-07T07:00:58.899Z,5.08
2019-06-07T07:04:11.466Z,4.87
2019-06-07T07:05:51.983Z,5.03
2019-06-07T07:08:15.979Z,5.00
2019-06-07T07:10:45.999Z,5.00
2019-06-07T07:13:12.927Z,4.60
2019-06-07T07:15:42.729Z,5.47
2019-06-07T07:18:09.116Z,4.83
2019-06-07T07:20:36.023Z,4.67
2019-06-07T07:23:03.193Z,4.30
2019-06-07T07:25:30.171Z,4.83
2019-06-07T07:27:56.953Z,4.37
2019-06-07T07:30:54.487Z,4.10
2019-06-07T07:33:20.824Z,4.10
2019-06-07T07:36:10.838Z,4.50
2019-06-07T07:38:16.868Z,4.78
2019-06-07T07:43:12.735Z,4.47
2019-06-07T07:45:39.884Z,4.83
2019-06-07T07:48:15.580Z,5.22
2019-06-07T07:50:36.373Z,4.45
2019-06-07T07:53:03.616Z,5.17
2019-06-07T07:55:30.777Z,4.50
2019-06-07T07:58:01.604Z,4.75
2019-06-07T08:00:50.034Z,4.20
2019-06-07T08:02:58.984Z,4.40
2019-06-07T08:05:41.606Z,4.25
2019-06-07T08:07:56.696Z,5.03
2019-06-07T08:10:22.426Z,4.92
2019-06-07T08:13:12.913Z,4.80
2019-06-07T08:15:17.887Z,5.03
2019-06-07T08:17:45.213Z,4.75
2019-06-07T08:20:13.895Z,4.80
2019-06-07T08:22:40.682Z,5.30
2019-06-07T08:25:08.487Z,4.95
2019-06-07T08:27:35.473Z,4.67
2019-06-07T08:30:35.381Z,5.10
2019-06-07T08:32:33.252Z,4.80
2019-06-07T08:35:05.969Z,4.62
2019-06-07T08:38:13.536Z,4.20
2019-06-07T08:39:59.673Z,4.25
2019-06-07T08:42:37.003Z,4.55
2019-06-07T08:45:01.549Z,4.62
2019-06-07T08:47:25.239Z,4.33
2019-06-07T08:49:55.942Z,4.75
2019-06-07T08:52:20.632Z,4.67
2019-06-07T08:54:47.401Z,5.03
2019-06-07T08:57:21.202Z,4.28
2019-06-07T08:59:42.667Z,4.78
2019-06-07T09:02:22.894Z,4.62
2019-06-07T09:04:37.961Z,4.53
2019-06-07T09:07:18.102Z,4.05
2019-06-07T09:09:33.445Z,4.53
2019-06-07T09:12:08.157Z,5.00
2019-06-07T09:14:28.929Z,4.80
2019-06-07T09:17:01.356Z,4.60
2019-06-07T09:19:24.380Z,4.40
2019-06-07T09:21:51.274Z,4.22
2019-06-07T09:24:18.038Z,4.35
2019-06-07T09:26:44.833Z,4.12
2019-06-07T09:29:12.274Z,4.03
2019-06-07T09:31:51.958Z,4.50
2019-06-07T09:34:11.791Z,4.65
2019-06-07T09:36:36.346Z,3.98
2019-06-07T09:39:09.563Z,4.60
2019-06-07T09:41:46.923Z,4.47
2019-06-07T09:44:19.092Z,4.97
2019-06-07T09:46:31.378Z,4.95
2019-06-07T09:51:26.785Z,4.67
2019-06-07T09:53:53.612Z,4.60
2019-06-07T09:56:20.491Z,4.78
2019-06-07T09:58:52.008Z,5.40
2019-06-07T10:01:15.982Z,5.47
2019-06-07T10:03:42.857Z,4.80
2019-06-07T10:06:13.441Z,5.40
2019-06-07T10:09:56.871Z,4.78
2019-06-07T10:11:08.833Z,5.20
2019-06-07T10:13:35.612Z,5.40
2019-06-07T10:16:02.816Z,4.97
2019-06-07T10:18:33.315Z,4.55
2019-06-07T10:21:01.383Z,4.55
2019-06-07T10:23:28.353Z,4.72
2019-06-07T10:25:55.495Z,5.53
2019-06-07T10:28:22.374Z,4.20
2019-06-07T10:30:49.151Z,4.50
2019-06-07T10:33:15.836Z,4.80
2019-06-07T10:35:42.572Z,4.60
2019-06-07T10:38:10.642Z,4.78
2019-06-07T10:40:37.570Z,3.95
2019-06-07T10:43:05.023Z,4.45
2019-06-07T10:45:31.900Z,4.30
2019-06-07T10:47:58.809Z,4.08
2019-06-07T10:50:25.667Z,4.17
2019-06-07T10:52:52.492Z,4.35
2019-06-07T10:55:19.296Z,4.25
2019-06-07T10:57:46.281Z,3.98
2019-06-07T11:00:13.596Z,4.08
2019-06-07T11:02:40.448Z,4.12
2019-06-07T11:05:08.197Z,4.87
2019-06-07T11:07:35.353Z,4.42
2019-06-07T11:10:09.421Z,4.42
2019-06-07T11:12:33.682Z,3.90
2019-06-07T11:15:00.432Z,4.20
2019-06-07T11:17:27.324Z,4.53
2019-06-07T11:19:54.174Z,4.37
2019-06-07T11:22:20.981Z,4.10
2019-06-07T11:24:47.794Z,4.12
2019-06-07T11:27:16.407Z,3.50
2019-06-07T11:29:43.159Z,3.70
2019-06-07T11:32:10.580Z,3.80
2019-06-07T11:34:37.551Z,4.62
2019-06-07T11:37:04.446Z,4.75
2019-06-07T11:39:31.213Z,3.83
2019-06-07T11:41:58.086Z,4.12
2019-06-07T11:44:24.898Z,4.03
2019-06-07T11:46:51.570Z,4.58
2019-06-07T11:49:22.025Z,3.60
2019-06-07T11:51:47.196Z,3.60
2019-06-07T11:54:14.203Z,3.85
2019-06-07T11:56:40.918Z,3.77
2019-06-07T11:59:08.946Z,4.03
2019-06-07T12:01:37.366Z,4.28
2019-06-07T12:04:04.251Z,4.17
2019-06-07T12:06:31.043Z,4.08
2019-06-07T12:08:57.897Z,4.00
2019-06-07T12:11:24.692Z,4.12
2019-06-07T12:13:51.499Z,3.80
2019-06-07T12:16:19.437Z,3.90
2019-06-07T12:18:46.499Z,4.33
2019-06-07T12:21:13.674Z,3.95
2019-06-07T12:23:40.532Z,4.35
2019-06-07T12:26:07.244Z,3.80
2019-06-07T12:28:34.018Z,4.33
2019-06-07T12:31:00.625Z,4.10
2019-06-07T12:33:27.515Z,3.67
2019-06-07T12:35:54.292Z,3.45
2019-06-07T12:38:21.512Z,3.77
2019-06-07T12:40:57.734Z,4.33
2019-06-07T12:43:19.165Z,3.47
2019-06-07T12:45:46.073Z,3.58
2019-06-07T12:48:16.802Z,3.83
2019-06-07T12:50:43.050Z,3.67
2019-06-07T12:53:10.109Z,3.90
2019-06-07T12:55:37.011Z,3.83
2019-06-07T12:58:03.771Z,3.50
2019-06-07T13:00:30.922Z,3.42
2019-06-07T13:02:57.679Z,3.20
2019-06-07T13:05:24.492Z,3.60
2019-06-07T13:07:51.224Z,3.40
2019-06-07T13:10:19.933Z,3.87
2019-06-07T13:12:46.758Z,3.22
2019-06-07T13:15:16.694Z,3.67
2019-06-07T13:17:42.231Z,3.40
2019-06-07T13:20:09.737Z,3.60
2019-06-07T13:22:36.677Z,3.85
2019-06-07T13:25:06.428Z,3.52
2019-06-07T13:27:33.877Z,3.60
2019-06-07T13:30:09.117Z,3.65
2019-06-07T13:32:30.668Z,3.98
2019-06-07T13:34:57.431Z,3.75
2019-06-07T13:37:25.387Z,3.45
2019-06-07T13:39:52.275Z,3.65
2019-06-07T13:42:20.448Z,4.03
2019-06-07T13:44:47.489Z,3.80
2019-06-07T13:47:14.263Z,4.30
2019-06-07T13:49:41.031Z,3.85
2019-06-07T13:52:08.992Z,4.10
2019-06-07T13:54:35.851Z,3.62
2019-06-07T13:57:03.297Z,3.37
2019-06-07T13:59:30.123Z,3.77
2019-06-07T14:01:56.888Z,3.50
2019-06-07T14:04:24.840Z,3.55
2019-06-07T14:06:51.707Z,3.58
2019-06-07T14:09:19.222Z,3.62
2019-06-07T14:11:50.625Z,5.97
2019-06-07T14:14:14.686Z,3.62
2019-06-07T14:16:41.411Z,3.92
2019-06-07T14:19:08.188Z,3.70
2019-06-07T14:21:34.961Z,3.77
2019-06-07T14:24:01.838Z,3.35
2019-06-07T14:26:29.428Z,3.75
2019-06-07T14:28:56.417Z,3.70
2019-06-07T14:31:24.516Z,3.72
2019-06-07T14:33:51.854Z,4.03
2019-06-07T14:36:18.753Z,3.90
2019-06-07T14:38:45.920Z,3.55
2019-06-07T14:41:12.708Z,3.83
2019-06-07T14:43:39.718Z,3.58
2019-06-07T14:46:06.581Z,3.77
2019-06-07T14:48:34.497Z,3.35
2019-06-07T14:51:01.437Z,3.70
2019-06-07T14:53:28.723Z,4.00
2019-06-07T14:55:55.565Z,3.42
2019-06-07T14:58:22.271Z,4.17
2019-06-07T15:00:49.045Z,3.62
2019-06-07T15:03:15.904Z,3.17
2019-06-07T15:05:42.789Z,3.30
2019-06-07T15:08:09.557Z,3.30
2019-06-07T15:10:36.577Z,3.33
2019-06-07T15:13:03.722Z,3.45
2019-06-07T15:15:30.791Z,3.58
2019-06-07T15:17:57.757Z,3.00
2019-06-07T15:20:24.549Z,3.20
2019-06-07T15:22:51.321Z,3.25
2019-06-07T15:25:18.016Z,3.65
2019-06-07T15:27:44.989Z,3.27
2019-06-07T15:30:13.568Z,3.58
2019-06-07T15:32:40.538Z,3.37
2019-06-07T15:35:07.715Z,2.92
2019-06-07T15:37:34.905Z,2.80
2019-06-07T15:40:01.800Z,3.10
2019-06-07T15:42:42.748Z,2.90
2019-06-07T15:44:57.387Z,3.52
2019-06-07T15:47:24.189Z,2.80
2019-06-07T15:49:50.969Z,3.10
2019-06-07T15:52:17.745Z,2.83
2019-06-07T15:54:44.771Z,2.90
2019-06-07T15:57:11.548Z,3.08
2019-06-07T15:59:39.623Z,3.35
2019-06-07T16:02:06.604Z,3.37
2019-06-07T16:04:33.511Z,3.27
2019-06-07T16:07:00.236Z,2.62
2019-06-07T16:09:27.028Z,2.90
2019-06-07T16:11:53.826Z,2.60
2019-06-07T16:14:20.525Z,2.85
2019-06-07T16:16:47.304Z,3.02
2019-06-07T16:19:14.144Z,2.67
2019-06-07T16:21:41.479Z,3.20
2019-06-07T16:24:08.382Z,3.17
2019-06-07T16:26:36.030Z,3.20
2019-06-07T16:29:02.950Z,2.67
2019-06-07T16:31:29.873Z,2.98
2019-06-07T16:33:56.783Z,3.15
2019-06-07T16:36:23.597Z,3.30
2019-06-07T16:38:50.247Z,3.12
2019-06-07T16:41:17.209Z,3.40
2019-06-07T16:43:44.763Z,3.20
2019-06-07T16:46:11.557Z,3.10
2019-06-07T16:48:38.754Z,3.00
2019-06-07T16:51:06.557Z,3.30
2019-06-07T16:53:33.498Z,3.62
2019-06-07T16:56:00.288Z,3.33
2019-06-07T16:58:27.045Z,3.35
2019-06-07T17:00:53.846Z,3.20
2019-06-07T17:03:20.848Z,2.77
2019-06-07T17:05:50.345Z,3.45
2019-06-07T17:08:16.080Z,3.00
2019-06-07T17:10:44.189Z,2.65
2019-06-07T17:13:11.180Z,3.55
2019-06-07T17:15:38.627Z,3.55
2019-06-07T17:18:06.529Z,3.08
2019-06-07T17:20:33.273Z,2.85
2019-06-07T17:23:00.644Z,3.00
2019-06-07T17:25:27.661Z,3.50
2019-06-07T17:27:54.547Z,3.40
2019-06-07T17:30:22.185Z,3.62
2019-06-07T17:32:58.526Z,3.20
2019-06-07T17:35:18.187Z,3.30
2019-06-07T17:37:46.349Z,3.80
2019-06-07T17:40:14.897Z,3.58
2019-06-07T17:42:42.773Z,3.10
2019-06-07T17:45:11.817Z,3.60
2019-06-07T17:47:38.736Z,3.85
2019-06-07T17:50:06.798Z,3.62
2019-06-07T17:52:33.648Z,3.50
2019-06-07T17:55:00.498Z,3.45
2019-06-07T17:57:27.272Z,3.40
2019-06-07T17:59:55.166Z,4.17
2019-06-07T18:02:22.555Z,4.15
2019-06-07T18:04:51.350Z,4.05
2019-06-07T18:07:19.751Z,4.10
2019-06-07T18:09:47.525Z,3.95
2019-06-07T18:12:14.489Z,4.00
2019-06-07T18:14:41.359Z,4.45
2019-06-07T18:17:08.241Z,3.98
2019-06-07T18:19:36.075Z,4.47
2019-06-07T18:22:02.876Z,4.15
2019-06-07T18:24:32.823Z,3.80
2019-06-07T18:26:59.580Z,4.05
2019-06-07T18:29:26.367Z,3.87
2019-06-07T18:31:53.079Z,4.28
2019-06-07T18:34:19.836Z,4.90
2019-06-07T18:36:46.944Z,4.40
2019-06-07T18:39:13.863Z,5.50
2019-06-07T18:41:40.695Z,5.00
2019-06-07T18:44:20.826Z,4.62
2019-06-07T18:46:37.039Z,4.55
2019-06-07T18:49:03.930Z,4.40
2019-06-07T18:51:30.728Z,5.22
2019-06-07T18:53:57.868Z,5.37
2019-06-07T18:56:26.502Z,5.30
2019-06-07T18:58:53.283Z,4.70
2019-06-07T19:01:20.061Z,4.87
2019-06-07T19:03:48.420Z,4.95
2019-06-07T19:06:15.714Z,5.47
2019-06-07T19:08:43.786Z,4.92
2019-06-07T19:11:10.696Z,4.97
2019-06-07T19:13:37.505Z,4.90
2019-06-07T19:16:04.192Z,5.53
2019-06-07T19:18:31.096Z,5.25
2019-06-07T19:20:58.562Z,5.25
2019-06-07T19:23:25.640Z,5.03
2019-06-07T19:25:52.502Z,5.12
2019-06-07T19:28:19.246Z,5.25
2019-06-07T19:30:46.032Z,5.12
2019-06-07T19:33:12.858Z,4.72
2019-06-07T19:35:39.820Z,4.75
2019-06-07T19:38:06.593Z,4.70
2019-06-07T19:40:33.556Z,5.22
2019-06-07T19:43:00.663Z,4.80
2019-06-07T19:45:30.953Z,5.05
2019-06-07T19:47:56.511Z,5.50
2019-06-07T19:50:23.784Z,5.42
2019-06-07T19:52:50.716Z,5.75
2019-06-07T19:55:17.565Z,5.80
2019-06-07T19:57:44.330Z,5.40
2019-06-07T20:00:14.797Z,5.72
2019-06-07T20:02:40.061Z,5.12
2019-06-07T20:05:12.048Z,5.55
2019-06-07T20:07:39.597Z,5.50
2019-06-07T20:10:06.591Z,5.35
2019-06-07T20:12:33.403Z,5.33
2019-06-07T20:15:18.754Z,5.37
2019-06-07T20:17:28.876Z,5.22
2019-06-07T20:19:56.247Z,5.92
2019-06-07T20:22:23.180Z,6.05
2019-06-07T20:24:49.833Z,5.10
2019-06-07T20:27:16.826Z,5.97
2019-06-07T20:29:43.692Z,6.50
2019-06-07T20:32:10.636Z,5.67
2019-06-07T20:34:37.507Z,5.75
2019-06-07T20:37:06.013Z,6.28
2019-06-07T20:39:32.976Z,6.20
2019-06-07T20:41:59.818Z,5.67
2019-06-07T20:44:26.604Z,6.22
2019-06-07T20:46:53.258Z,6.42
2019-06-07T20:49:21.519Z,6.37
2019-06-07T20:51:48.285Z,6.40
2019-06-07T20:54:16.845Z,6.37
2019-06-07T20:56:43.733Z,6.78
2019-06-07T20:59:10.573Z,6.37
2019-06-07T21:01:37.377Z,5.53
2019-06-07T21:04:05.101Z,6.42
2019-06-07T21:06:33.835Z,6.05
2019-06-07T21:09:01.520Z,6.08
2019-06-07T21:11:30.396Z,6.15
2019-06-07T21:13:57.303Z,6.12
2019-06-07T21:16:24.056Z,6.37
2019-06-07T21:18:51.183Z,6.85
2019-06-07T21:21:18.003Z,6.80
2019-06-07T21:23:44.752Z,5.83
2019-06-07T21:26:11.708Z,6.15
2019-06-07T21:28:39.948Z,6.60
2019-06-07T21:31:06.758Z,5.87
2019-06-07T21:33:33.546Z,6.30
2019-06-07T21:36:01.523Z,6.70
2019-06-07T21:38:28.406Z,6.50
2019-06-07T21:40:55.193Z,6.72
2019-06-07T21:43:22.341Z,7.47
2019-06-07T21:46:04.266Z,6.53
2019-06-07T21:48:17.628Z,6.92
2019-06-07T21:50:44.365Z,6.97
2019-06-07T21:53:11.151Z,6.70
2019-06-07T21:55:37.965Z,7.12
2019-06-07T21:58:05.187Z,7.40
2019-06-07T22:00:53.764Z,7.25
2019-06-07T22:03:20.603Z,7.17
2019-06-07T22:05:49.309Z,7.12
2019-06-07T22:08:17.989Z,6.92
2019-06-07T22:10:44.663Z,7.75
2019-06-07T22:13:12.177Z,7.03
2019-06-07T22:15:39.005Z,6.53
2019-06-07T22:18:06.951Z,6.97
2019-06-07T22:20:34.793Z,6.85
2019-06-07T22:23:01.654Z,7.62
2019-06-07T22:25:28.495Z,7.20
2019-06-07T22:27:55.323Z,6.90
2019-06-07T22:30:22.099Z,7.28
2019-06-07T22:32:48.915Z,7.50
2019-06-07T22:35:15.684Z,7.28
2019-06-07T22:37:42.475Z,8.10
2019-06-07T22:40:10.729Z,6.95
2019-06-07T22:42:37.513Z,7.40
2019-06-07T22:45:05.182Z,8.15
2019-06-07T22:47:32.136Z,7.70
2019-06-07T22:49:59.051Z,6.87
2019-06-07T22:52:25.783Z,7.40
2019-06-07T22:54:52.659Z,8.10
2019-06-07T22:57:27.319Z,8.43
2019-06-07T22:59:54.072Z,8.33
2019-06-07T23:02:20.838Z,8.25
2019-06-07T23:04:47.721Z,7.67
2019-06-07T23:07:14.952Z,8.63
2019-06-07T23:09:41.903Z,8.85
2019-06-07T23:12:09.145Z,7.87
2019-06-07T23:14:37.025Z,8.23
2019-06-07T23:17:03.889Z,8.05
2019-06-07T23:19:30.807Z,8.45
2019-06-07T23:21:58.728Z,8.55
2019-06-07T23:24:25.559Z,9.58
2019-06-07T23:26:52.376Z,8.45
2019-06-07T23:29:19.148Z,7.90
2019-06-07T23:31:46.907Z,7.80
2019-06-07T23:34:14.699Z,8.03
2019-06-07T23:36:41.563Z,8.35
2019-06-07T23:39:08.307Z,8.90
2019-06-07T23:41:35.002Z,8.83
2019-06-07T23:44:01.787Z,8.25
2019-06-07T23:46:28.533Z,8.90
2019-06-07T23:48:55.341Z,8.33
2019-06-07T23:51:22.250Z,8.40
2019-06-07T23:53:48.897Z,8.60
2019-06-07T23:56:15.950Z,8.70
2019-06-07T23:58:42.656Z,8.83
